createdAt,value
2022-08-31T00:00:39.085Z,20.7
2022-08-31T00:01:36.115Z,20.68
2022-08-31T00:02:36.413Z,20.67
2022-08-31T00:03:36.095Z,20.65
2022-08-31T00:04:36.082Z,20.66
2022-08-31T00:05:36.006Z,20.67
2022-08-31T00:06:36.050Z,20.66
2022-08-31T00:07:36.531Z,20.68
2022-08-31T00:08:36.284Z,20.71
2022-08-31T00:09:36.005Z,20.69
2022-08-31T00:10:36.971Z,20.68
2022-08-31T00:11:39.030Z,20.69
2022-08-31T00:12:36.288Z,20.66
2022-08-31T00:13:36.026Z,20.64
2022-08-31T00:14:36.037Z,20.61
2022-08-31T00:15:36.162Z,20.61
2022-08-31T00:16:36.209Z,20.62
2022-08-31T00:17:36.289Z,20.64
2022-08-31T00:18:36.061Z,20.63
2022-08-31T00:19:36.092Z,20.62
2022-08-31T00:20:36.078Z,20.61
2022-08-31T00:21:36.161Z,20.6
2022-08-31T00:22:42.029Z,20.58
2022-08-31T00:23:36.414Z,20.59
2022-08-31T00:24:36.105Z,20.6
2022-08-31T00:25:35.931Z,20.58
2022-08-31T00:26:36.053Z,20.58
2022-08-31T00:27:36.336Z,20.56
2022-08-31T00:28:36.014Z,20.57
2022-08-31T00:29:36.053Z,20.58
2022-08-31T00:30:35.925Z,20.61
2022-08-31T00:31:36.092Z,20.62
2022-08-31T00:32:36.291Z,20.6
2022-08-31T00:33:39.124Z,20.57
2022-08-31T00:34:36.140Z,20.56
2022-08-31T00:35:36.180Z,20.58
2022-08-31T00:36:36.064Z,20.59
2022-08-31T00:37:36.285Z,20.58
2022-08-31T00:38:36.289Z,20.59
2022-08-31T00:39:36.025Z,20.64
2022-08-31T00:40:44.387Z,20.65
2022-08-31T00:41:36.145Z,20.72
2022-08-31T00:42:36.330Z,20.72
2022-08-31T00:43:36.085Z,20.7
2022-08-31T00:44:39.027Z,20.7
2022-08-31T00:45:36.198Z,20.71
2022-08-31T00:46:36.129Z,20.71
2022-08-31T00:47:36.366Z,20.71
2022-08-31T00:48:36.017Z,20.7
2022-08-31T00:49:36.012Z,20.69
2022-08-31T00:50:36.047Z,20.68
2022-08-31T00:51:35.928Z,20.67
2022-08-31T00:52:37.738Z,20.67
2022-08-31T00:53:36.288Z,20.66
2022-08-31T00:54:36.125Z,20.61
2022-08-31T00:55:39.090Z,20.6
2022-08-31T00:56:36.107Z,20.58
2022-08-31T00:57:36.359Z,20.56
2022-08-31T00:58:36.092Z,20.58
2022-08-31T00:59:36.015Z,20.54
2022-08-31T01:00:36.047Z,20.53
2022-08-31T01:01:36.117Z,20.53
2022-08-31T01:02:36.467Z,20.52
2022-08-31T01:03:36.092Z,20.51
2022-08-31T01:04:36.042Z,20.5
2022-08-31T01:05:36.114Z,20.5
2022-08-31T01:06:39.077Z,20.5
2022-08-31T01:07:36.293Z,20.51
2022-08-31T01:08:36.333Z,20.47
2022-08-31T01:09:36.132Z,20.47
2022-08-31T01:10:36.146Z,20.45
2022-08-31T01:11:36.114Z,20.46
2022-08-31T01:12:36.281Z,20.45
2022-08-31T01:13:36.039Z,20.46
2022-08-31T01:14:36.097Z,20.48
2022-08-31T01:15:36.077Z,20.47
2022-08-31T01:16:36.205Z,20.46
2022-08-31T01:17:42.039Z,20.45
2022-08-31T01:18:36.135Z,20.45
2022-08-31T01:19:36.054Z,20.45
2022-08-31T01:20:36.009Z,20.46
2022-08-31T01:21:36.097Z,20.44
2022-08-31T01:22:36.370Z,20.42
2022-08-31T01:23:36.286Z,20.41
2022-08-31T01:24:36.079Z,20.41
2022-08-31T01:25:36.000Z,20.4
2022-08-31T01:26:36.004Z,20.4
2022-08-31T01:27:36.364Z,20.4
2022-08-31T01:28:39.073Z,20.37
2022-08-31T01:29:36.106Z,20.4
2022-08-31T01:30:36.102Z,20.37
2022-08-31T01:31:36.029Z,20.38
2022-08-31T01:32:36.368Z,20.36
2022-08-31T01:33:36.139Z,20.36
2022-08-31T01:34:36.029Z,20.36
2022-08-31T01:35:36.051Z,20.41
2022-08-31T01:36:36.089Z,20.4
2022-08-31T01:37:36.518Z,20.41
2022-08-31T01:38:36.323Z,20.41
2022-08-31T01:39:39.070Z,20.4
2022-08-31T01:40:36.148Z,20.4
2022-08-31T01:41:36.046Z,20.4
2022-08-31T01:42:36.295Z,20.39
2022-08-31T01:43:36.115Z,20.35
2022-08-31T01:44:36.069Z,20.35
2022-08-31T01:45:36.069Z,20.37
2022-08-31T01:46:36.159Z,20.37
2022-08-31T01:47:36.361Z,20.38
2022-08-31T01:48:36.095Z,20.41
2022-08-31T01:49:36.017Z,20.4
2022-08-31T01:50:39.064Z,20.4
2022-08-31T01:51:36.018Z,20.4
2022-08-31T01:52:36.366Z,20.4
2022-08-31T01:53:36.288Z,20.38
2022-08-31T01:54:36.035Z,20.38
2022-08-31T01:55:36.025Z,20.39
2022-08-31T01:56:36.063Z,20.36
2022-08-31T01:57:36.396Z,20.37
2022-08-31T01:58:36.139Z,20.35
2022-08-31T01:59:36.099Z,20.34
2022-08-31T02:00:36.219Z,20.36
2022-08-31T02:01:39.267Z,20.37
2022-08-31T02:02:37.075Z,20.38
2022-08-31T02:03:36.029Z,20.37
2022-08-31T02:04:36.055Z,20.38
2022-08-31T02:05:36.112Z,20.36
2022-08-31T02:06:36.044Z,20.37
2022-08-31T02:07:36.051Z,20.34
2022-08-31T02:08:36.393Z,20.32
2022-08-31T02:09:36.094Z,20.31
2022-08-31T02:10:36.026Z,20.31
2022-08-31T02:11:36.341Z,20.29
2022-08-31T02:12:39.048Z,20.28
2022-08-31T02:13:36.078Z,20.26
2022-08-31T02:14:36.057Z,20.23
2022-08-31T02:15:36.078Z,20.22
2022-08-31T02:16:36.441Z,20.19
2022-08-31T02:17:36.100Z,20.2
2022-08-31T02:18:36.316Z,20.19
2022-08-31T02:19:36.079Z,20.18
2022-08-31T02:20:36.102Z,20.15
2022-08-31T02:21:36.944Z,20.15
2022-08-31T02:22:36.118Z,20.15
2022-08-31T02:23:39.136Z,20.13
2022-08-31T02:24:36.008Z,20.13
2022-08-31T02:25:36.014Z,20.13
2022-08-31T02:26:36.362Z,20.12
2022-08-31T02:27:36.136Z,20.13
2022-08-31T02:28:36.077Z,20.13
2022-08-31T02:29:36.052Z,20.13
2022-08-31T02:30:36.058Z,20.13
2022-08-31T02:31:36.431Z,20.14
2022-08-31T02:32:36.089Z,20.13
2022-08-31T02:33:36.382Z,20.12
2022-08-31T02:34:38.926Z,20.11
2022-08-31T02:35:36.154Z,20.11
2022-08-31T02:36:36.314Z,20.13
2022-08-31T02:37:36.101Z,20.13
2022-08-31T02:38:36.155Z,20.13
2022-08-31T02:39:36.047Z,20.09
2022-08-31T02:40:36.116Z,20.09
2022-08-31T02:41:36.401Z,20.06
2022-08-31T02:42:53.923Z,20.13
2022-08-31T02:43:36.079Z,20.09
2022-08-31T02:44:36.093Z,20.05
2022-08-31T02:45:39.076Z,20.04
2022-08-31T02:46:36.363Z,20
2022-08-31T02:47:36.012Z,19.98
2022-08-31T02:48:36.558Z,19.97
2022-08-31T02:49:36.108Z,19.95
2022-08-31T02:50:36.131Z,19.93
2022-08-31T02:51:36.296Z,19.92
2022-08-31T02:52:36.038Z,19.92
2022-08-31T02:53:36.095Z,19.91
2022-08-31T02:54:36.132Z,19.9
2022-08-31T02:55:36.079Z,19.89
2022-08-31T02:56:39.311Z,19.94
2022-08-31T02:57:36.116Z,19.94
2022-08-31T02:58:36.055Z,19.9
2022-08-31T02:59:36.096Z,19.95
2022-08-31T03:00:36.071Z,19.96
2022-08-31T03:01:36.204Z,19.96
2022-08-31T03:02:36.318Z,19.92
2022-08-31T03:03:36.376Z,19.89
2022-08-31T03:04:36.122Z,19.88
2022-08-31T03:05:36.075Z,19.91
2022-08-31T03:06:36.297Z,19.93
2022-08-31T03:07:39.107Z,19.92
2022-08-31T03:08:36.120Z,19.91
2022-08-31T03:09:36.016Z,19.86
2022-08-31T03:10:36.088Z,19.84
2022-08-31T03:11:36.344Z,19.83
2022-08-31T03:12:36.141Z,19.83
2022-08-31T03:13:36.009Z,19.85
2022-08-31T03:14:36.078Z,19.85
2022-08-31T03:15:36.180Z,19.83
2022-08-31T03:16:36.294Z,19.86
2022-08-31T03:17:36.014Z,19.8
2022-08-31T03:18:42.070Z,19.81
2022-08-31T03:19:36.135Z,19.77
2022-08-31T03:20:36.128Z,19.77
2022-08-31T03:21:36.337Z,19.76
2022-08-31T03:22:36.115Z,19.76
2022-08-31T03:23:35.931Z,19.77
2022-08-31T03:24:36.046Z,19.76
2022-08-31T03:25:36.033Z,19.74
2022-08-31T03:26:36.294Z,19.74
2022-08-31T03:27:36.127Z,19.72
2022-08-31T03:28:36.064Z,19.71
2022-08-31T03:29:39.071Z,19.69
2022-08-31T03:30:36.156Z,19.76
2022-08-31T03:31:36.422Z,19.78
2022-08-31T03:32:36.106Z,19.72
2022-08-31T03:33:36.369Z,19.71
2022-08-31T03:34:36.113Z,19.73
2022-08-31T03:35:36.036Z,19.74
2022-08-31T03:36:36.374Z,19.71
2022-08-31T03:37:36.136Z,19.73
2022-08-31T03:38:36.077Z,19.72
2022-08-31T03:39:36.118Z,19.71
2022-08-31T03:40:39.152Z,19.71
2022-08-31T03:41:36.333Z,19.69
2022-08-31T03:42:36.133Z,19.69
2022-08-31T03:43:36.106Z,19.69
2022-08-31T03:44:36.064Z,19.68
2022-08-31T03:45:36.134Z,19.66
2022-08-31T03:46:36.105Z,19.67
2022-08-31T03:47:36.033Z,19.67
2022-08-31T03:48:36.302Z,19.65
2022-08-31T03:49:36.079Z,19.66
2022-08-31T03:50:36.057Z,19.67
2022-08-31T03:51:39.144Z,19.66
2022-08-31T03:52:36.143Z,19.66
2022-08-31T03:53:36.130Z,19.68
2022-08-31T03:54:36.018Z,19.7
2022-08-31T03:55:35.938Z,19.72
2022-08-31T03:56:36.411Z,19.72
2022-08-31T03:57:36.048Z,19.74
2022-08-31T03:58:36.023Z,19.75
2022-08-31T03:59:36.155Z,19.73
2022-08-31T04:00:36.150Z,19.73
2022-08-31T04:01:36.380Z,19.7
2022-08-31T04:02:39.085Z,19.71
2022-08-31T04:03:36.302Z,19.7
2022-08-31T04:04:36.139Z,19.68
2022-08-31T04:05:36.026Z,19.68
2022-08-31T04:06:36.405Z,19.68
2022-08-31T04:07:42.064Z,19.68
2022-08-31T04:08:36.037Z,19.73
2022-08-31T04:09:36.026Z,19.67
2022-08-31T04:10:36.133Z,19.65
2022-08-31T04:11:45.167Z,19.66
2022-08-31T04:12:36.127Z,19.67
2022-08-31T04:13:39.066Z,19.66
2022-08-31T04:14:36.065Z,19.66
2022-08-31T04:15:36.070Z,19.68
2022-08-31T04:16:36.013Z,19.69
2022-08-31T04:17:36.070Z,19.71
2022-08-31T04:18:36.300Z,19.72
2022-08-31T04:19:36.074Z,19.7
2022-08-31T04:20:36.413Z,19.68
2022-08-31T04:21:36.302Z,19.66
2022-08-31T04:22:36.158Z,19.66
2022-08-31T04:23:36.091Z,19.65
2022-08-31T04:24:39.051Z,19.6
2022-08-31T04:25:36.144Z,19.58
2022-08-31T04:26:36.345Z,19.59
2022-08-31T04:27:36.096Z,19.58
2022-08-31T04:28:36.010Z,19.58
2022-08-31T04:29:36.130Z,19.59
2022-08-31T04:30:36.030Z,19.59
2022-08-31T04:31:36.328Z,19.59
2022-08-31T04:32:36.048Z,19.58
2022-08-31T04:33:36.299Z,19.58
2022-08-31T04:34:36.130Z,19.59
2022-08-31T04:35:39.038Z,19.58
2022-08-31T04:36:36.294Z,19.61
2022-08-31T04:37:36.110Z,19.6
2022-08-31T04:38:36.143Z,19.6
2022-08-31T04:39:36.047Z,19.6
2022-08-31T04:40:36.168Z,19.62
2022-08-31T04:41:36.312Z,19.61
2022-08-31T04:42:35.949Z,19.62
2022-08-31T04:43:36.073Z,19.61
2022-08-31T04:44:36.090Z,19.67
2022-08-31T04:45:36.099Z,19.68
2022-08-31T04:46:42.027Z,19.67
2022-08-31T04:47:36.032Z,19.66
2022-08-31T04:48:36.019Z,19.66
2022-08-31T04:49:36.138Z,19.66
2022-08-31T04:50:40.503Z,19.66
2022-08-31T04:51:36.379Z,19.67
2022-08-31T04:52:36.065Z,19.69
2022-08-31T04:53:36.018Z,19.69
2022-08-31T04:54:36.055Z,19.7
2022-08-31T04:55:36.135Z,19.71
2022-08-31T04:56:36.129Z,19.72
2022-08-31T04:57:39.100Z,19.73
2022-08-31T04:58:36.144Z,19.74
2022-08-31T04:59:36.116Z,19.76
2022-08-31T05:00:36.021Z,19.75
2022-08-31T05:01:42.880Z,19.73
2022-08-31T05:02:36.153Z,19.72
2022-08-31T05:03:36.302Z,19.71
2022-08-31T05:04:36.049Z,19.74
2022-08-31T05:05:36.008Z,19.71
2022-08-31T05:06:36.372Z,19.73
2022-08-31T05:07:36.116Z,19.76
2022-08-31T05:08:39.097Z,19.8
2022-08-31T05:09:35.999Z,19.8
2022-08-31T05:10:36.054Z,19.81
2022-08-31T05:11:36.300Z,19.79
2022-08-31T05:12:36.131Z,19.78
2022-08-31T05:13:36.068Z,19.72
2022-08-31T05:14:37.187Z,19.72
2022-08-31T05:15:36.055Z,19.7
2022-08-31T05:16:36.302Z,19.73
2022-08-31T05:17:36.018Z,19.76
2022-08-31T05:18:36.373Z,19.73
2022-08-31T05:19:41.127Z,19.73
2022-08-31T05:20:36.146Z,19.71
2022-08-31T05:21:36.301Z,19.72
2022-08-31T05:22:36.089Z,19.72
2022-08-31T05:23:35.960Z,19.69
2022-08-31T05:24:36.037Z,19.68
2022-08-31T05:25:36.063Z,19.7
2022-08-31T05:26:36.370Z,19.78
2022-08-31T05:27:36.146Z,19.84
2022-08-31T05:28:36.110Z,19.82
2022-08-31T05:29:36.047Z,19.74
2022-08-31T05:30:39.163Z,19.68
2022-08-31T05:31:36.115Z,19.62
2022-08-31T05:32:37.910Z,19.61
2022-08-31T05:33:36.140Z,19.62
2022-08-31T05:34:36.094Z,19.62
2022-08-31T05:35:36.034Z,19.55
2022-08-31T05:36:35.952Z,19.45
2022-08-31T05:37:36.027Z,19.31
2022-08-31T05:38:36.048Z,19.27
2022-08-31T05:39:35.979Z,19.17
2022-08-31T05:40:36.017Z,19.12
2022-08-31T05:41:42.023Z,19.12
2022-08-31T05:42:36.144Z,19.15
2022-08-31T05:43:36.153Z,19.18
2022-08-31T05:44:36.032Z,19.16
2022-08-31T05:45:36.056Z,19.06
2022-08-31T05:46:36.372Z,18.98
2022-08-31T05:47:36.030Z,18.91
2022-08-31T05:48:35.942Z,18.91
2022-08-31T05:49:35.933Z,18.93
2022-08-31T05:50:36.013Z,18.93
2022-08-31T05:51:38.013Z,18.86
2022-08-31T05:52:39.096Z,18.84
2022-08-31T05:53:36.087Z,18.89
2022-08-31T05:54:36.360Z,18.89
2022-08-31T05:55:36.107Z,18.85
2022-08-31T05:56:36.370Z,18.83
2022-08-31T05:57:36.102Z,18.88
2022-08-31T05:58:36.029Z,18.91
2022-08-31T05:59:35.921Z,18.9
2022-08-31T06:00:36.076Z,18.87
2022-08-31T06:01:36.123Z,18.85
2022-08-31T06:02:36.073Z,18.89
2022-08-31T06:03:39.104Z,18.94
2022-08-31T06:04:36.132Z,18.98
2022-08-31T06:05:36.062Z,18.97
2022-08-31T06:06:35.955Z,18.98
2022-08-31T06:07:36.033Z,19.05
2022-08-31T06:08:36.025Z,19.11
2022-08-31T06:09:36.340Z,19.11
2022-08-31T06:10:36.052Z,19.09
2022-08-31T06:11:36.282Z,19.1
2022-08-31T06:12:36.129Z,19.08
2022-08-31T06:13:36.079Z,19.06
2022-08-31T06:14:39.040Z,19.1
2022-08-31T06:15:36.332Z,19.26
2022-08-31T06:16:36.276Z,19.27
2022-08-31T06:17:36.059Z,19.29
2022-08-31T06:18:36.025Z,19.27
2022-08-31T06:19:36.119Z,19.17
2022-08-31T06:20:36.280Z,19.14
2022-08-31T06:21:36.047Z,19.25
2022-08-31T06:22:36.117Z,19.32
2022-08-31T06:23:36.026Z,19.34
2022-08-31T06:24:36.393Z,19.37
2022-08-31T06:25:42.044Z,19.4
2022-08-31T06:26:36.117Z,19.46
2022-08-31T06:27:36.070Z,19.47
2022-08-31T06:28:36.007Z,19.41
2022-08-31T06:29:36.028Z,19.44
2022-08-31T06:30:38.566Z,19.45
2022-08-31T06:31:36.224Z,19.38
2022-08-31T06:32:36.025Z,19.33
2022-08-31T06:33:36.109Z,19.35
2022-08-31T06:34:36.076Z,19.42
2022-08-31T06:35:36.300Z,19.51
2022-08-31T06:36:38.968Z,19.53
2022-08-31T06:37:36.111Z,19.43
2022-08-31T06:38:36.066Z,19.38
2022-08-31T06:39:36.112Z,19.44
2022-08-31T06:40:36.410Z,19.56
2022-08-31T06:41:37.002Z,19.63
2022-08-31T06:42:36.049Z,19.59
2022-08-31T06:43:36.044Z,19.59
2022-08-31T06:44:36.298Z,19.66
2022-08-31T06:45:36.142Z,19.68
2022-08-31T06:46:36.162Z,19.67
2022-08-31T06:47:38.976Z,19.65
2022-08-31T06:48:36.105Z,19.73
2022-08-31T06:49:36.551Z,19.87
2022-08-31T06:50:36.133Z,19.98
2022-08-31T06:51:36.117Z,20.03
2022-08-31T06:52:38.950Z,20.12
2022-08-31T06:53:35.941Z,20.17
2022-08-31T06:54:36.283Z,20.08
2022-08-31T06:55:36.024Z,19.96
2022-08-31T06:56:36.086Z,19.85
2022-08-31T06:57:36.124Z,19.82
2022-08-31T06:58:39.070Z,19.93
2022-08-31T06:59:36.294Z,20
2022-08-31T07:00:36.119Z,19.96
2022-08-31T07:01:36.405Z,19.98
2022-08-31T07:02:36.094Z,19.93
2022-08-31T07:03:36.119Z,19.88
2022-08-31T07:04:36.290Z,19.95
2022-08-31T07:05:35.941Z,20.04
2022-08-31T07:06:36.076Z,20.06
2022-08-31T07:07:36.083Z,20.06
2022-08-31T07:08:36.045Z,20.1
2022-08-31T07:09:42.016Z,20.18
2022-08-31T07:10:36.150Z,20.14
2022-08-31T07:11:36.557Z,20.13
2022-08-31T07:12:35.905Z,20.08
2022-08-31T07:13:36.042Z,20.05
2022-08-31T07:14:36.289Z,19.94
2022-08-31T07:15:36.030Z,19.95
2022-08-31T07:16:36.004Z,20
2022-08-31T07:17:36.023Z,20.08
2022-08-31T07:18:35.977Z,20.34
2022-08-31T07:19:36.403Z,20.38
2022-08-31T07:20:38.944Z,20.33
2022-08-31T07:21:36.123Z,20.3
2022-08-31T07:22:36.082Z,20.36
2022-08-31T07:23:36.069Z,20.38
2022-08-31T07:24:35.997Z,20.33
2022-08-31T07:25:36.359Z,20.41
2022-08-31T07:26:36.632Z,20.47
2022-08-31T07:27:36.065Z,20.61
2022-08-31T07:28:36.060Z,20.67
2022-08-31T07:29:36.365Z,20.75
2022-08-31T07:30:36.057Z,20.87
2022-08-31T07:31:39.096Z,20.93
2022-08-31T07:32:35.986Z,20.96
2022-08-31T07:33:36.048Z,20.94
2022-08-31T07:34:36.361Z,20.98
2022-08-31T07:35:36.095Z,21.03
2022-08-31T07:36:36.082Z,21.12
2022-08-31T07:37:36.079Z,21.19
2022-08-31T07:38:36.023Z,21.32
2022-08-31T07:39:36.328Z,21.43
2022-08-31T07:40:36.162Z,21.38
2022-08-31T07:41:36.105Z,21.47
2022-08-31T07:42:39.086Z,21.62
2022-08-31T07:43:36.129Z,21.7
2022-08-31T07:44:36.282Z,21.81
2022-08-31T07:45:39.415Z,21.91
2022-08-31T07:46:36.221Z,22
2022-08-31T07:47:36.044Z,21.91
2022-08-31T07:48:36.012Z,21.64
2022-08-31T07:49:36.523Z,21.46
2022-08-31T07:50:36.143Z,21.37
2022-08-31T07:51:36.045Z,21.35
2022-08-31T07:52:36.100Z,21.28
2022-08-31T07:53:39.070Z,21.24
2022-08-31T07:54:36.296Z,21.22
2022-08-31T07:55:36.093Z,21.27
2022-08-31T07:56:36.019Z,21.27
2022-08-31T07:57:35.936Z,21.12
2022-08-31T07:58:36.036Z,21.09
2022-08-31T07:59:36.289Z,21.24
2022-08-31T08:00:36.074Z,21.35
2022-08-31T08:01:36.384Z,21.38
2022-08-31T08:02:36.236Z,21.48
2022-08-31T08:03:36.029Z,21.64
2022-08-31T08:04:42.000Z,21.5
2022-08-31T08:05:36.362Z,21.32
2022-08-31T08:06:35.937Z,21.17
2022-08-31T08:07:36.077Z,21.16
2022-08-31T08:08:36.105Z,21.17
2022-08-31T08:09:36.406Z,21.15
2022-08-31T08:10:36.020Z,21.13
2022-08-31T08:11:36.032Z,21.26
2022-08-31T08:12:36.113Z,21.41
2022-08-31T08:13:36.019Z,21.37
2022-08-31T08:14:36.499Z,21.32
2022-08-31T08:15:40.497Z,21.23
2022-08-31T08:16:36.233Z,21.12
2022-08-31T08:17:36.104Z,21.07
2022-08-31T08:18:35.939Z,21.03
2022-08-31T08:19:36.358Z,21.07
2022-08-31T08:20:38.579Z,21.03
2022-08-31T08:21:36.041Z,20.94
2022-08-31T08:22:51.398Z,20.9
2022-08-31T08:23:36.064Z,20.87
2022-08-31T08:24:36.296Z,20.89
2022-08-31T08:25:36.077Z,20.89
2022-08-31T08:26:38.999Z,20.85
2022-08-31T08:27:36.160Z,20.81
2022-08-31T08:28:39.631Z,20.74
2022-08-31T08:29:36.065Z,20.66
2022-08-31T08:30:36.096Z,20.63
2022-08-31T08:31:36.121Z,20.64
2022-08-31T08:32:36.018Z,20.71
2022-08-31T08:33:36.029Z,20.89
2022-08-31T08:34:36.359Z,21
2022-08-31T08:35:36.113Z,20.89
2022-08-31T08:36:36.081Z,20.8
2022-08-31T08:37:57.095Z,20.8
2022-08-31T08:38:36.132Z,20.74
2022-08-31T08:39:36.354Z,20.68
2022-08-31T08:40:36.158Z,20.67
2022-08-31T08:41:36.042Z,20.69
2022-08-31T08:42:36.014Z,20.72
2022-08-31T08:43:36.060Z,20.83
2022-08-31T08:44:36.362Z,20.78
2022-08-31T08:45:36.173Z,20.73
2022-08-31T08:46:36.188Z,20.73
2022-08-31T08:47:37.484Z,20.77
2022-08-31T08:48:39.100Z,20.7
2022-08-31T08:49:36.602Z,20.68
2022-08-31T08:50:36.107Z,20.63
2022-08-31T08:51:36.040Z,20.51
2022-08-31T08:52:36.114Z,20.48
2022-08-31T08:53:35.927Z,20.56
2022-08-31T08:54:36.311Z,20.61
2022-08-31T08:55:36.096Z,20.58
2022-08-31T08:56:36.105Z,20.55
2022-08-31T08:57:36.054Z,20.61
2022-08-31T08:58:36.147Z,20.66
2022-08-31T08:59:42.029Z,20.68
2022-08-31T09:00:36.105Z,20.62
2022-08-31T09:01:35.973Z,20.62
2022-08-31T09:02:36.111Z,20.6
2022-08-31T09:03:36.132Z,20.64
2022-08-31T09:04:36.287Z,20.63
2022-08-31T09:05:36.056Z,20.65
2022-08-31T09:06:45.497Z,20.71
2022-08-31T09:07:36.141Z,20.85
2022-08-31T09:08:36.113Z,20.86
2022-08-31T09:09:36.398Z,20.91
2022-08-31T09:10:39.092Z,20.92
2022-08-31T09:11:36.102Z,20.94
2022-08-31T09:12:36.019Z,20.92
2022-08-31T09:13:36.041Z,20.91
2022-08-31T09:14:36.362Z,20.91
2022-08-31T09:15:36.376Z,20.98
2022-08-31T09:16:36.140Z,21.08
2022-08-31T09:17:36.022Z,21.15
2022-08-31T09:18:36.046Z,21.17
2022-08-31T09:19:36.363Z,21.22
2022-08-31T09:20:36.095Z,21.36
2022-08-31T09:21:39.032Z,21.34
2022-08-31T09:22:36.023Z,21.29
2022-08-31T09:23:35.907Z,21.36
2022-08-31T09:24:36.364Z,21.57
2022-08-31T09:25:36.138Z,21.76
2022-08-31T09:26:36.152Z,21.86
2022-08-31T09:27:36.004Z,21.93
2022-08-31T09:28:36.078Z,22.09
2022-08-31T09:29:36.292Z,22.01
2022-08-31T09:30:36.143Z,21.91
2022-08-31T09:31:36.194Z,21.91
2022-08-31T09:32:39.472Z,21.93
2022-08-31T09:33:36.131Z,22.13
2022-08-31T09:34:36.362Z,22.18
2022-08-31T09:35:36.042Z,22.29
2022-08-31T09:36:36.067Z,22.33
2022-08-31T09:37:35.917Z,22.49
2022-08-31T09:38:36.029Z,22.52
2022-08-31T09:39:37.256Z,22.55
2022-08-31T09:40:36.239Z,22.54
2022-08-31T09:41:36.105Z,22.44
2022-08-31T09:42:35.995Z,22.56
2022-08-31T09:43:41.087Z,22.65
2022-08-31T09:44:36.327Z,22.69
2022-08-31T09:45:39.949Z,22.65
2022-08-31T09:46:36.039Z,22.64
2022-08-31T09:47:36.119Z,22.67
2022-08-31T09:48:36.123Z,22.7
2022-08-31T09:49:36.462Z,22.82
2022-08-31T09:50:36.051Z,22.86
2022-08-31T09:51:35.933Z,22.85
2022-08-31T09:52:36.039Z,22.81
2022-08-31T09:53:36.154Z,22.87
2022-08-31T09:54:46.646Z,22.98
2022-08-31T09:55:36.148Z,22.99
2022-08-31T09:56:36.121Z,23.07
2022-08-31T09:57:36.020Z,23.07
2022-08-31T09:58:36.042Z,23.29
2022-08-31T09:59:36.294Z,23.41
2022-08-31T10:00:36.029Z,23.47
2022-08-31T10:01:36.113Z,23.51
2022-08-31T10:02:36.134Z,23.59
2022-08-31T10:03:36.094Z,23.72
2022-08-31T10:04:37.009Z,23.62
2022-08-31T10:05:39.121Z,23.46
2022-08-31T10:06:36.077Z,23.46
2022-08-31T10:07:35.960Z,23.23
2022-08-31T10:08:35.920Z,23.12
2022-08-31T10:09:36.413Z,23.06
2022-08-31T10:10:36.098Z,23.23
2022-08-31T10:11:36.305Z,23.32
2022-08-31T10:12:36.019Z,22.98
2022-08-31T10:13:36.009Z,22.76
2022-08-31T10:14:36.054Z,22.85
2022-08-31T10:15:36.080Z,22.88
2022-08-31T10:16:41.994Z,22.78
2022-08-31T10:17:36.102Z,22.71
2022-08-31T10:18:36.376Z,22.69
2022-08-31T10:19:36.141Z,22.71
2022-08-31T10:20:36.038Z,22.83
2022-08-31T10:21:36.380Z,23.04
2022-08-31T10:22:36.326Z,23.26
2022-08-31T10:23:36.043Z,23.3
2022-08-31T10:24:36.083Z,23.37
2022-08-31T10:25:36.018Z,23.33
2022-08-31T10:26:36.304Z,23.45
2022-08-31T10:27:39.062Z,23.49
2022-08-31T10:28:36.040Z,23.32
2022-08-31T10:29:36.025Z,23.22
2022-08-31T10:30:35.965Z,23.16
2022-08-31T10:31:36.436Z,23.15
2022-08-31T10:32:36.005Z,23.35
2022-08-31T10:33:36.309Z,23.27
2022-08-31T10:34:36.046Z,23.2
2022-08-31T10:35:36.157Z,23.3
2022-08-31T10:36:36.321Z,23.48
2022-08-31T10:37:36.113Z,23.53
2022-08-31T10:38:39.088Z,23.56
2022-08-31T10:39:36.132Z,23.48
2022-08-31T10:40:36.223Z,23.46
2022-08-31T10:41:36.235Z,23.56
2022-08-31T10:42:35.975Z,23.69
2022-08-31T10:43:36.056Z,23.84
2022-08-31T10:44:36.041Z,23.98
2022-08-31T10:45:36.021Z,24.15
2022-08-31T10:46:36.427Z,24.18
2022-08-31T10:47:36.012Z,24.1
2022-08-31T10:48:36.519Z,24.26
2022-08-31T10:49:39.090Z,24.44
2022-08-31T10:50:36.135Z,24.77
2022-08-31T10:51:36.367Z,24.78
2022-08-31T10:52:36.132Z,24.91
2022-08-31T10:53:40.056Z,25.2
2022-08-31T10:54:36.004Z,25.52
2022-08-31T10:55:36.080Z,25.54
2022-08-31T10:56:36.370Z,25.46
2022-08-31T10:57:36.026Z,25.65
2022-08-31T10:58:36.065Z,25.58
2022-08-31T10:59:36.115Z,25.53
2022-08-31T11:00:39.131Z,25.61
2022-08-31T11:01:36.175Z,25.91
2022-08-31T11:02:36.144Z,25.98
2022-08-31T11:03:36.360Z,26.17
2022-08-31T11:04:36.164Z,26.22
2022-08-31T11:05:36.057Z,26.16
2022-08-31T11:06:36.298Z,26.03
2022-08-31T11:07:36.038Z,26.13
2022-08-31T11:08:36.041Z,26.14
2022-08-31T11:09:35.936Z,26.21
2022-08-31T11:10:35.940Z,26.22
2022-08-31T11:11:43.792Z,26.32
2022-08-31T11:12:36.032Z,26.49
2022-08-31T11:13:35.917Z,26.89
2022-08-31T11:14:36.066Z,27.05
2022-08-31T11:15:36.258Z,27.08
2022-08-31T11:16:36.298Z,27.04
2022-08-31T11:17:36.016Z,26.94
2022-08-31T11:18:36.374Z,26.6
2022-08-31T11:19:36.142Z,26.63
2022-08-31T11:20:36.041Z,26.41
2022-08-31T11:21:36.371Z,26.41
2022-08-31T11:22:39.138Z,26.78
2022-08-31T11:23:43.820Z,27.11
2022-08-31T11:24:37.462Z,27.49
2022-08-31T11:25:36.014Z,27.69
2022-08-31T11:26:36.375Z,27.82
2022-08-31T11:27:36.097Z,27.75
2022-08-31T11:28:35.954Z,27.68
2022-08-31T11:29:35.952Z,27.2
2022-08-31T11:30:39.957Z,27.18
2022-08-31T11:31:36.160Z,27.6
2022-08-31T11:32:36.060Z,27.87
2022-08-31T11:33:55.233Z,27.84
2022-08-31T11:34:36.084Z,27.89
2022-08-31T11:35:36.374Z,28.1
2022-08-31T11:36:36.110Z,27.75
2022-08-31T11:37:36.150Z,27.4
2022-08-31T11:38:36.122Z,26.98
2022-08-31T11:39:35.934Z,26.55
2022-08-31T11:40:36.505Z,26.47
2022-08-31T11:41:36.086Z,26.61
2022-08-31T11:42:36.076Z,26.73
2022-08-31T11:43:36.016Z,27.06
2022-08-31T11:44:39.055Z,27.46
2022-08-31T11:45:36.306Z,27.66
2022-08-31T11:46:36.242Z,27.82
2022-08-31T11:47:36.101Z,28.35
2022-08-31T11:48:36.371Z,28.69
2022-08-31T11:49:36.043Z,28.84
2022-08-31T11:50:36.364Z,29.15
2022-08-31T11:51:40.107Z,29.14
2022-08-31T11:52:36.156Z,28.69
2022-08-31T11:53:36.097Z,28.51
2022-08-31T11:54:36.066Z,28.31
2022-08-31T11:55:42.062Z,27.93
2022-08-31T11:56:36.101Z,28.12
2022-08-31T11:57:37.825Z,27.96
2022-08-31T11:58:36.118Z,28.06
2022-08-31T11:59:36.015Z,28.23
2022-08-31T12:00:36.512Z,28.33
2022-08-31T12:01:36.046Z,28.62
2022-08-31T12:02:36.090Z,28.92
2022-08-31T12:03:36.316Z,29.11
2022-08-31T12:04:36.085Z,29.28
2022-08-31T12:05:36.546Z,29.3
2022-08-31T12:06:39.036Z,29.17
2022-08-31T12:07:36.139Z,28.97
2022-08-31T12:08:36.144Z,28.84
2022-08-31T12:09:36.095Z,29.07
2022-08-31T12:10:36.460Z,29.24
2022-08-31T12:11:36.107Z,29.13
2022-08-31T12:12:36.066Z,28.95
2022-08-31T12:13:35.920Z,28.8
2022-08-31T12:14:36.032Z,28.1
2022-08-31T12:15:36.439Z,27.84
2022-08-31T12:16:36.132Z,27.71
2022-08-31T12:17:38.970Z,27.56
2022-08-31T12:18:36.341Z,27.46
2022-08-31T12:19:36.035Z,27
2022-08-31T12:20:36.433Z,26.75
2022-08-31T12:21:36.120Z,26.82
2022-08-31T12:22:36.080Z,26.84
2022-08-31T12:23:36.256Z,26.83
2022-08-31T12:24:36.055Z,26.75
2022-08-31T12:25:36.310Z,26.71
2022-08-31T12:26:36.078Z,26.76
2022-08-31T12:27:36.020Z,26.76
2022-08-31T12:28:39.131Z,26.98
2022-08-31T12:29:36.131Z,27.51
2022-08-31T12:30:36.301Z,27.55
2022-08-31T12:31:36.146Z,27.61
2022-08-31T12:32:36.088Z,28.04
2022-08-31T12:33:36.302Z,28.25
2022-08-31T12:34:36.074Z,28.38
2022-08-31T12:35:36.378Z,28.85
2022-08-31T12:36:36.125Z,28.86
2022-08-31T12:37:36.059Z,28.23
2022-08-31T12:38:36.070Z,28.09
2022-08-31T12:39:38.966Z,27.83
2022-08-31T12:40:36.507Z,27.72
2022-08-31T12:41:36.130Z,27.62
2022-08-31T12:42:36.143Z,27.67
2022-08-31T12:43:35.938Z,27.71
2022-08-31T12:44:36.058Z,27.9
2022-08-31T12:45:36.300Z,28.12
2022-08-31T12:46:36.058Z,28.53
2022-08-31T12:47:36.113Z,28.88
2022-08-31T12:48:36.378Z,28.59
2022-08-31T12:49:36.116Z,28.23
2022-08-31T12:50:42.040Z,27.89
2022-08-31T12:51:36.103Z,27.97
2022-08-31T12:52:35.918Z,27.7
2022-08-31T12:53:36.032Z,27.27
2022-08-31T12:54:36.015Z,27.29
2022-08-31T12:55:36.297Z,27.41